sensor_id;sensor_type;location;lat;lon;timestamp;P1;durP1;ratioP1;P2;durP2;ratioP2
70757;SDS011;59316;52.964;7.102;2023-05-07T00:01:01;31.88;;;17.38;;
70757;SDS011;59316;52.964;7.102;2023-05-07T00:06:23;33.50;;;18.05;;
70757;SDS011;59316;52.964;7.102;2023-05-07T00:11:44;30.08;;;17.50;;
70757;SDS011;59316;52.964;7.102;2023-05-07T00:17:06;33.85;;;18.42;;
70757;SDS011;59316;52.964;7.102;2023-05-07T00:22:27;30.45;;;16.77;;
70757;SDS011;59316;52.964;7.102;2023-05-07T00:27:49;30.33;;;18.52;;
70757;SDS011;59316;52.964;7.102;2023-05-07T00:33:10;35.53;;;17.92;;
70757;SDS011;59316;52.964;7.102;2023-05-07T00:38:32;33.67;;;17.42;;
70757;SDS011;59316;52.964;7.102;2023-05-07T00:43:54;35.17;;;18.83;;
70757;SDS011;59316;52.964;7.102;2023-05-07T00:49:15;38.97;;;20.73;;
70757;SDS011;59316;52.964;7.102;2023-05-07T00:54:37;33.13;;;18.80;;
70757;SDS011;59316;52.964;7.102;2023-05-07T01:00:02;36.17;;;19.67;;
70757;SDS011;59316;52.964;7.102;2023-05-07T01:10:47;36.38;;;20.27;;
70757;SDS011;59316;52.964;7.102;2023-05-07T01:16:08;36.75;;;20.88;;
70757;SDS011;59316;52.964;7.102;2023-05-07T01:21:32;39.85;;;21.80;;
70757;SDS011;59316;52.964;7.102;2023-05-07T01:26:56;43.55;;;21.52;;
70757;SDS011;59316;52.964;7.102;2023-05-07T01:32:18;39.90;;;21.25;;
70757;SDS011;59316;52.964;7.102;2023-05-07T01:37:48;42.92;;;22.05;;
70757;SDS011;59316;52.964;7.102;2023-05-07T01:43:11;44.22;;;22.83;;
70757;SDS011;59316;52.964;7.102;2023-05-07T01:48:33;44.53;;;23.30;;
70757;SDS011;59316;52.964;7.102;2023-05-07T01:53:55;47.63;;;23.05;;
70757;SDS011;59316;52.964;7.102;2023-05-07T01:59:17;49.25;;;23.50;;
70757;SDS011;59316;52.964;7.102;2023-05-07T02:04:38;55.95;;;25.90;;
70757;SDS011;59316;52.964;7.102;2023-05-07T02:10:00;47.53;;;22.60;;
70757;SDS011;59316;52.964;7.102;2023-05-07T02:15:21;52.97;;;25.13;;
70757;SDS011;59316;52.964;7.102;2023-05-07T02:20:43;51.42;;;24.67;;
70757;SDS011;59316;52.964;7.102;2023-05-07T02:26:05;57.33;;;26.08;;
70757;SDS011;59316;52.964;7.102;2023-05-07T02:31:26;54.35;;;27.17;;
70757;SDS011;59316;52.964;7.102;2023-05-07T02:36:48;52.95;;;24.98;;
70757;SDS011;59316;52.964;7.102;2023-05-07T02:42:13;57.58;;;25.48;;
70757;SDS011;59316;52.964;7.102;2023-05-07T02:47:34;54.10;;;25.65;;
70757;SDS011;59316;52.964;7.102;2023-05-07T02:52:57;57.38;;;26.00;;
70757;SDS011;59316;52.964;7.102;2023-05-07T02:58:19;57.53;;;25.95;;
70757;SDS011;59316;52.964;7.102;2023-05-07T03:03:40;52.05;;;24.75;;
70757;SDS011;59316;52.964;7.102;2023-05-07T03:09:02;55.97;;;25.17;;
70757;SDS011;59316;52.964;7.102;2023-05-07T03:14:23;51.60;;;24.73;;
70757;SDS011;59316;52.964;7.102;2023-05-07T03:19:45;52.30;;;24.77;;
70757;SDS011;59316;52.964;7.102;2023-05-07T03:25:07;49.25;;;24.08;;
70757;SDS011;59316;52.964;7.102;2023-05-07T03:30:29;50.58;;;23.63;;
70757;SDS011;59316;52.964;7.102;2023-05-07T03:35:51;46.50;;;22.52;;
70757;SDS011;59316;52.964;7.102;2023-05-07T03:41:16;47.47;;;23.02;;
70757;SDS011;59316;52.964;7.102;2023-05-07T03:46:38;47.72;;;23.50;;
70757;SDS011;59316;52.964;7.102;2023-05-07T03:52:03;44.15;;;22.50;;
70757;SDS011;59316;52.964;7.102;2023-05-07T03:57:25;41.05;;;20.60;;
70757;SDS011;59316;52.964;7.102;2023-05-07T04:02:46;45.58;;;22.35;;
70757;SDS011;59316;52.964;7.102;2023-05-07T04:08:15;37.85;;;20.75;;
70757;SDS011;59316;52.964;7.102;2023-05-07T04:13:40;39.25;;;20.45;;
70757;SDS011;59316;52.964;7.102;2023-05-07T04:19:02;41.45;;;20.92;;
70757;SDS011;59316;52.964;7.102;2023-05-07T04:24:25;40.50;;;19.75;;
70757;SDS011;59316;52.964;7.102;2023-05-07T04:29:46;37.63;;;19.45;;
70757;SDS011;59316;52.964;7.102;2023-05-07T04:35:10;36.88;;;20.52;;
70757;SDS011;59316;52.964;7.102;2023-05-07T04:40:32;38.42;;;18.95;;
70757;SDS011;59316;52.964;7.102;2023-05-07T04:45:55;33.95;;;19.17;;
70757;SDS011;59316;52.964;7.102;2023-05-07T04:51:19;35.63;;;19.67;;
70757;SDS011;59316;52.964;7.102;2023-05-07T04:56:41;35.78;;;19.73;;
70757;SDS011;59316;52.964;7.102;2023-05-07T05:02:03;33.33;;;18.77;;
70757;SDS011;59316;52.964;7.102;2023-05-07T05:07:25;32.90;;;18.33;;
70757;SDS011;59316;52.964;7.102;2023-05-07T05:12:47;33.85;;;19.02;;
70757;SDS011;59316;52.964;7.102;2023-05-07T05:18:08;32.47;;;17.98;;
70757;SDS011;59316;52.964;7.102;2023-05-07T05:23:31;28.50;;;16.57;;
70757;SDS011;59316;52.964;7.102;2023-05-07T05:28:54;30.33;;;17.20;;
70757;SDS011;59316;52.964;7.102;2023-05-07T05:34:17;32.53;;;18.37;;
70757;SDS011;59316;52.964;7.102;2023-05-07T05:39:39;30.95;;;17.33;;
70757;SDS011;59316;52.964;7.102;2023-05-07T05:45:03;33.22;;;18.25;;
70757;SDS011;59316;52.964;7.102;2023-05-07T05:50:26;29.42;;;16.40;;
70757;SDS011;59316;52.964;7.102;2023-05-07T05:55:48;33.30;;;18.17;;
70757;SDS011;59316;52.964;7.102;2023-05-07T06:01:10;28.80;;;16.30;;
70757;SDS011;59316;52.964;7.102;2023-05-07T06:06:31;29.75;;;17.25;;
70757;SDS011;59316;52.964;7.102;2023-05-07T06:11:54;30.83;;;17.52;;
70757;SDS011;59316;52.964;7.102;2023-05-07T06:17:18;33.53;;;18.35;;
70757;SDS011;59316;52.964;7.102;2023-05-07T06:22:42;30.10;;;17.07;;
70757;SDS011;59316;52.964;7.102;2023-05-07T06:28:05;28.58;;;16.75;;
70757;SDS011;59316;52.964;7.102;2023-05-07T06:33:29;31.77;;;16.23;;
70757;SDS011;59316;52.964;7.102;2023-05-07T06:38:50;34.08;;;16.30;;
70757;SDS011;59316;52.964;7.102;2023-05-07T06:44:12;30.85;;;17.38;;
70757;SDS011;59316;52.964;7.102;2023-05-07T06:49:38;29.27;;;16.25;;
70757;SDS011;59316;52.964;7.102;2023-05-07T06:54:59;29.98;;;16.77;;
70757;SDS011;59316;52.964;7.102;2023-05-07T07:00:21;31.88;;;17.20;;
70757;SDS011;59316;52.964;7.102;2023-05-07T07:05:46;30.50;;;17.92;;
70757;SDS011;59316;52.964;7.102;2023-05-07T07:11:08;31.95;;;17.52;;
70757;SDS011;59316;52.964;7.102;2023-05-07T07:16:31;29.55;;;16.20;;
70757;SDS011;59316;52.964;7.102;2023-05-07T07:21:52;29.17;;;16.02;;
70757;SDS011;59316;52.964;7.102;2023-05-07T07:27:14;29.17;;;16.25;;
70757;SDS011;59316;52.964;7.102;2023-05-07T07:32:35;32.08;;;16.58;;
70757;SDS011;59316;52.964;7.102;2023-05-07T07:37:57;23.75;;;14.80;;
70757;SDS011;59316;52.964;7.102;2023-05-07T07:43:19;27.90;;;15.77;;
70757;SDS011;59316;52.964;7.102;2023-05-07T07:48:41;26.25;;;15.65;;
70757;SDS011;59316;52.964;7.102;2023-05-07T07:54:02;26.50;;;15.65;;
70757;SDS011;59316;52.964;7.102;2023-05-07T08:04:48;24.25;;;14.98;;
70757;SDS011;59316;52.964;7.102;2023-05-07T08:10:10;22.52;;;14.60;;
70757;SDS011;59316;52.964;7.102;2023-05-07T08:15:32;27.50;;;15.10;;
70757;SDS011;59316;52.964;7.102;2023-05-07T08:20:54;25.17;;;15.15;;
70757;SDS011;59316;52.964;7.102;2023-05-07T08:26:19;21.40;;;13.85;;
70757;SDS011;59316;52.964;7.102;2023-05-07T08:31:40;20.38;;;13.55;;
70757;SDS011;59316;52.964;7.102;2023-05-07T08:37:02;22.83;;;13.80;;
70757;SDS011;59316;52.964;7.102;2023-05-07T08:42:28;21.40;;;13.17;;
70757;SDS011;59316;52.964;7.102;2023-05-07T08:47:59;20.73;;;12.93;;
70757;SDS011;59316;52.964;7.102;2023-05-07T08:53:28;18.75;;;12.80;;
70757;SDS011;59316;52.964;7.102;2023-05-07T08:58:50;19.60;;;13.23;;
70757;SDS011;59316;52.964;7.102;2023-05-07T09:04:11;20.33;;;12.95;;
70757;SDS011;59316;52.964;7.102;2023-05-07T09:09:34;19.85;;;13.38;;
70757;SDS011;59316;52.964;7.102;2023-05-07T09:14:58;18.27;;;12.38;;
70757;SDS011;59316;52.964;7.102;2023-05-07T09:25:43;18.88;;;12.77;;
70757;SDS011;59316;52.964;7.102;2023-05-07T09:31:12;16.88;;;11.98;;
70757;SDS011;59316;52.964;7.102;2023-05-07T09:36:34;16.60;;;12.15;;
70757;SDS011;59316;52.964;7.102;2023-05-07T09:41:56;17.77;;;12.38;;
70757;SDS011;59316;52.964;7.102;2023-05-07T09:47:25;17.65;;;11.75;;
70757;SDS011;59316;52.964;7.102;2023-05-07T09:52:54;16.38;;;11.35;;
70757;SDS011;59316;52.964;7.102;2023-05-07T09:58:18;14.80;;;11.48;;
70757;SDS011;59316;52.964;7.102;2023-05-07T10:03:40;13.95;;;11.18;;
70757;SDS011;59316;52.964;7.102;2023-05-07T10:09:03;15.95;;;11.55;;
70757;SDS011;59316;52.964;7.102;2023-05-07T10:14:26;16.65;;;12.30;;
70757;SDS011;59316;52.964;7.102;2023-05-07T10:19:49;14.60;;;11.35;;
70757;SDS011;59316;52.964;7.102;2023-05-07T10:25:21;15.18;;;11.20;;
70757;SDS011;59316;52.964;7.102;2023-05-07T10:36:56;16.08;;;12.48;;
70757;SDS011;59316;52.964;7.102;2023-05-07T10:42:18;15.07;;;11.85;;
70757;SDS011;59316;52.964;7.102;2023-05-07T10:59:37;13.77;;;10.68;;
70757;SDS011;59316;52.964;7.102;2023-05-07T11:05:23;13.82;;;11.43;;
70757;SDS011;59316;52.964;7.102;2023-05-07T11:11:10;14.27;;;11.02;;
70757;SDS011;59316;52.964;7.102;2023-05-07T11:16:37;14.02;;;11.50;;
70757;SDS011;59316;52.964;7.102;2023-05-07T11:28:07;12.65;;;10.68;;
70757;SDS011;59316;52.964;7.102;2023-05-07T11:33:33;13.02;;;11.00;;
70757;SDS011;59316;52.964;7.102;2023-05-07T11:38:57;15.25;;;11.95;;
70757;SDS011;59316;52.964;7.102;2023-05-07T11:44:19;13.02;;;10.40;;
70757;SDS011;59316;52.964;7.102;2023-05-07T11:49:40;11.90;;;9.75;;
70757;SDS011;59316;52.964;7.102;2023-05-07T11:55:02;13.70;;;10.35;;
70757;SDS011;59316;52.964;7.102;2023-05-07T12:00:24;12.77;;;9.98;;
70757;SDS011;59316;52.964;7.102;2023-05-07T12:05:47;11.30;;;9.23;;
70757;SDS011;59316;52.964;7.102;2023-05-07T12:11:10;11.23;;;9.50;;
70757;SDS011;59316;52.964;7.102;2023-05-07T12:16:36;10.02;;;8.98;;
70757;SDS011;59316;52.964;7.102;2023-05-07T12:21:58;11.03;;;9.60;;
70757;SDS011;59316;52.964;7.102;2023-05-07T12:27:20;12.55;;;9.80;;
70757;SDS011;59316;52.964;7.102;2023-05-07T12:32:41;11.15;;;9.93;;
70757;SDS011;59316;52.964;7.102;2023-05-07T12:38:15;12.27;;;9.85;;
70757;SDS011;59316;52.964;7.102;2023-05-07T12:43:38;10.90;;;9.52;;
70757;SDS011;59316;52.964;7.102;2023-05-07T12:48:59;11.85;;;9.15;;
70757;SDS011;59316;52.964;7.102;2023-05-07T12:54:28;9.57;;;8.60;;
70757;SDS011;59316;52.964;7.102;2023-05-07T12:59:57;10.80;;;9.27;;
70757;SDS011;59316;52.964;7.102;2023-05-07T13:05:19;10.13;;;8.90;;
70757;SDS011;59316;52.964;7.102;2023-05-07T13:10:40;11.48;;;8.68;;
70757;SDS011;59316;52.964;7.102;2023-05-07T13:16:02;10.25;;;8.90;;
70757;SDS011;59316;52.964;7.102;2023-05-07T13:26:46;11.10;;;9.82;;
70757;SDS011;59316;52.964;7.102;2023-05-07T13:32:08;11.13;;;9.80;;
70757;SDS011;59316;52.964;7.102;2023-05-07T13:37:29;10.98;;;9.88;;
70757;SDS011;59316;52.964;7.102;2023-05-07T13:42:51;12.30;;;9.60;;
70757;SDS011;59316;52.964;7.102;2023-05-07T13:48:13;10.95;;;9.82;;
70757;SDS011;59316;52.964;7.102;2023-05-07T13:53:35;11.80;;;10.05;;
70757;SDS011;59316;52.964;7.102;2023-05-07T13:58:56;12.20;;;10.88;;
70757;SDS011;59316;52.964;7.102;2023-05-07T14:04:20;13.27;;;11.07;;
70757;SDS011;59316;52.964;7.102;2023-05-07T14:09:41;13.73;;;11.88;;
70757;SDS011;59316;52.964;7.102;2023-05-07T14:15:03;13.40;;;11.70;;
70757;SDS011;59316;52.964;7.102;2023-05-07T14:20:25;13.07;;;11.32;;
70757;SDS011;59316;52.964;7.102;2023-05-07T14:25:46;14.15;;;11.73;;
70757;SDS011;59316;52.964;7.102;2023-05-07T14:31:08;14.07;;;11.07;;
70757;SDS011;59316;52.964;7.102;2023-05-07T14:36:29;15.30;;;12.13;;
70757;SDS011;59316;52.964;7.102;2023-05-07T14:41:51;14.00;;;12.50;;
70757;SDS011;59316;52.964;7.102;2023-05-07T14:47:12;13.45;;;11.27;;
70757;SDS011;59316;52.964;7.102;2023-05-07T14:52:35;14.88;;;12.60;;
70757;SDS011;59316;52.964;7.102;2023-05-07T14:57:56;13.50;;;10.85;;
70757;SDS011;59316;52.964;7.102;2023-05-07T15:03:18;13.40;;;11.43;;
70757;SDS011;59316;52.964;7.102;2023-05-07T15:08:39;14.98;;;11.55;;
70757;SDS011;59316;52.964;7.102;2023-05-07T15:14:01;14.75;;;12.02;;
70757;SDS011;59316;52.964;7.102;2023-05-07T15:19:22;15.80;;;11.95;;
70757;SDS011;59316;52.964;7.102;2023-05-07T15:24:44;15.90;;;11.90;;
70757;SDS011;59316;52.964;7.102;2023-05-07T15:30:06;18.75;;;12.05;;
70757;SDS011;59316;52.964;7.102;2023-05-07T15:35:28;14.75;;;11.13;;
70757;SDS011;59316;52.964;7.102;2023-05-07T15:40:49;15.43;;;11.90;;
70757;SDS011;59316;52.964;7.102;2023-05-07T15:46:11;16.15;;;12.30;;
70757;SDS011;59316;52.964;7.102;2023-05-07T15:51:34;20.00;;;12.98;;
70757;SDS011;59316;52.964;7.102;2023-05-07T15:56:56;17.57;;;13.83;;
70757;SDS011;59316;52.964;7.102;2023-05-07T16:02:17;19.90;;;14.38;;
70757;SDS011;59316;52.964;7.102;2023-05-07T16:07:39;18.83;;;13.98;;
70757;SDS011;59316;52.964;7.102;2023-05-07T16:13:00;19.42;;;14.15;;
70757;SDS011;59316;52.964;7.102;2023-05-07T16:18:21;18.17;;;13.30;;
70757;SDS011;59316;52.964;7.102;2023-05-07T16:23:43;17.20;;;13.57;;
70757;SDS011;59316;52.964;7.102;2023-05-07T16:29:05;19.88;;;13.20;;
70757;SDS011;59316;52.964;7.102;2023-05-07T16:34:26;17.00;;;12.38;;
70757;SDS011;59316;52.964;7.102;2023-05-07T16:39:49;20.10;;;13.60;;
70757;SDS011;59316;52.964;7.102;2023-05-07T16:45:11;17.55;;;12.65;;
70757;SDS011;59316;52.964;7.102;2023-05-07T16:50:33;18.05;;;12.88;;
70757;SDS011;59316;52.964;7.102;2023-05-07T16:55:54;16.83;;;12.25;;
70757;SDS011;59316;52.964;7.102;2023-05-07T17:01:16;18.65;;;12.43;;
70757;SDS011;59316;52.964;7.102;2023-05-07T17:06:37;18.48;;;13.73;;
70757;SDS011;59316;52.964;7.102;2023-05-07T17:11:59;19.48;;;12.90;;
70757;SDS011;59316;52.964;7.102;2023-05-07T17:17:21;18.70;;;13.40;;
70757;SDS011;59316;52.964;7.102;2023-05-07T17:22:42;16.27;;;12.30;;
70757;SDS011;59316;52.964;7.102;2023-05-07T17:28:04;17.67;;;12.65;;
70757;SDS011;59316;52.964;7.102;2023-05-07T17:33:25;15.27;;;11.45;;
70757;SDS011;59316;52.964;7.102;2023-05-07T17:38:47;14.43;;;10.82;;
70757;SDS011;59316;52.964;7.102;2023-05-07T17:44:09;16.15;;;11.55;;
70757;SDS011;59316;52.964;7.102;2023-05-07T17:49:31;14.38;;;10.50;;
70757;SDS011;59316;52.964;7.102;2023-05-07T17:54:52;13.93;;;10.88;;
70757;SDS011;59316;52.964;7.102;2023-05-07T18:00:14;12.10;;;9.40;;
70757;SDS011;59316;52.964;7.102;2023-05-07T18:05:35;14.80;;;9.48;;
70757;SDS011;59316;52.964;7.102;2023-05-07T18:10:58;10.85;;;8.40;;
70757;SDS011;59316;52.964;7.102;2023-05-07T18:16:19;12.43;;;9.82;;
70757;SDS011;59316;52.964;7.102;2023-05-07T18:21:41;12.40;;;9.30;;
70757;SDS011;59316;52.964;7.102;2023-05-07T18:27:02;15.27;;;8.95;;
70757;SDS011;59316;52.964;7.102;2023-05-07T18:32:24;13.25;;;9.32;;
70757;SDS011;59316;52.964;7.102;2023-05-07T18:37:46;12.55;;;9.45;;
70757;SDS011;59316;52.964;7.102;2023-05-07T18:43:07;12.02;;;9.15;;
70757;SDS011;59316;52.964;7.102;2023-05-07T18:48:29;12.57;;;8.95;;
70757;SDS011;59316;52.964;7.102;2023-05-07T18:53:50;10.93;;;8.43;;
70757;SDS011;59316;52.964;7.102;2023-05-07T18:59:12;12.23;;;8.85;;
70757;SDS011;59316;52.964;7.102;2023-05-07T19:04:33;11.27;;;8.55;;
70757;SDS011;59316;52.964;7.102;2023-05-07T19:09:55;10.75;;;8.10;;
70757;SDS011;59316;52.964;7.102;2023-05-07T19:15:24;13.82;;;9.20;;
70757;SDS011;59316;52.964;7.102;2023-05-07T19:20:47;12.25;;;9.05;;
70757;SDS011;59316;52.964;7.102;2023-05-07T19:26:12;14.30;;;9.18;;
70757;SDS011;59316;52.964;7.102;2023-05-07T19:31:34;12.13;;;8.70;;
70757;SDS011;59316;52.964;7.102;2023-05-07T19:36:55;11.63;;;8.63;;
70757;SDS011;59316;52.964;7.102;2023-05-07T19:42:17;15.48;;;9.40;;
70757;SDS011;59316;52.964;7.102;2023-05-07T19:47:39;11.00;;;8.40;;
70757;SDS011;59316;52.964;7.102;2023-05-07T19:53:00;14.18;;;9.85;;
70757;SDS011;59316;52.964;7.102;2023-05-07T19:58:22;12.77;;;9.05;;
70757;SDS011;59316;52.964;7.102;2023-05-07T20:03:43;13.25;;;8.63;;
70757;SDS011;59316;52.964;7.102;2023-05-07T20:09:05;14.30;;;10.35;;
70757;SDS011;59316;52.964;7.102;2023-05-07T20:14:26;15.98;;;9.88;;
70757;SDS011;59316;52.964;7.102;2023-05-07T20:19:48;12.50;;;9.05;;
70757;SDS011;59316;52.964;7.102;2023-05-07T20:25:10;13.35;;;8.93;;
70757;SDS011;59316;52.964;7.102;2023-05-07T20:30:31;13.45;;;8.98;;
70757;SDS011;59316;52.964;7.102;2023-05-07T20:35:53;12.63;;;9.23;;
70757;SDS011;59316;52.964;7.102;2023-05-07T20:41:17;12.10;;;8.63;;
70757;SDS011;59316;52.964;7.102;2023-05-07T20:46:39;12.00;;;8.55;;
70757;SDS011;59316;52.964;7.102;2023-05-07T20:52:00;10.80;;;7.57;;
70757;SDS011;59316;52.964;7.102;2023-05-07T20:57:22;14.13;;;8.07;;
70757;SDS011;59316;52.964;7.102;2023-05-07T21:02:43;12.20;;;7.97;;
70757;SDS011;59316;52.964;7.102;2023-05-07T21:08:05;12.32;;;8.70;;
70757;SDS011;59316;52.964;7.102;2023-05-07T21:13:27;11.43;;;8.02;;
70757;SDS011;59316;52.964;7.102;2023-05-07T21:18:48;12.63;;;8.45;;
70757;SDS011;59316;52.964;7.102;2023-05-07T21:24:10;11.38;;;8.18;;
70757;SDS011;59316;52.964;7.102;2023-05-07T21:29:31;11.45;;;7.95;;
70757;SDS011;59316;52.964;7.102;2023-05-07T21:34:53;13.13;;;8.52;;
70757;SDS011;59316;52.964;7.102;2023-05-07T21:40:15;13.00;;;9.13;;
70757;SDS011;59316;52.964;7.102;2023-05-07T21:45:37;13.52;;;8.32;;
70757;SDS011;59316;52.964;7.102;2023-05-07T21:51:02;13.75;;;8.98;;
70757;SDS011;59316;52.964;7.102;2023-05-07T21:56:26;10.77;;;8.23;;
70757;SDS011;59316;52.964;7.102;2023-05-07T22:01:48;13.52;;;8.85;;
70757;SDS011;59316;52.964;7.102;2023-05-07T22:07:09;14.10;;;9.27;;
70757;SDS011;59316;52.964;7.102;2023-05-07T22:12:31;16.15;;;9.43;;
70757;SDS011;59316;52.964;7.102;2023-05-07T22:17:52;13.48;;;9.52;;
70757;SDS011;59316;52.964;7.102;2023-05-07T22:23:14;13.05;;;9.35;;
70757;SDS011;59316;52.964;7.102;2023-05-07T22:28:36;16.23;;;10.18;;
70757;SDS011;59316;52.964;7.102;2023-05-07T22:33:57;16.30;;;9.63;;
70757;SDS011;59316;52.964;7.102;2023-05-07T22:39:19;13.98;;;9.95;;
70757;SDS011;59316;52.964;7.102;2023-05-07T22:44:40;14.70;;;10.10;;
70757;SDS011;59316;52.964;7.102;2023-05-07T22:50:02;14.55;;;10.02;;
70757;SDS011;59316;52.964;7.102;2023-05-07T22:55:24;15.73;;;9.95;;
70757;SDS011;59316;52.964;7.102;2023-05-07T23:00:45;15.60;;;9.85;;
70757;SDS011;59316;52.964;7.102;2023-05-07T23:06:07;14.98;;;10.45;;
70757;SDS011;59316;52.964;7.102;2023-05-07T23:11:28;15.50;;;10.65;;
70757;SDS011;59316;52.964;7.102;2023-05-07T23:16:50;15.80;;;9.43;;
70757;SDS011;59316;52.964;7.102;2023-05-07T23:22:12;16.10;;;10.45;;
70757;SDS011;59316;52.964;7.102;2023-05-07T23:27:33;15.95;;;10.10;;
70757;SDS011;59316;52.964;7.102;2023-05-07T23:32:54;13.98;;;10.27;;
70757;SDS011;59316;52.964;7.102;2023-05-07T23:38:16;17.92;;;10.93;;
70757;SDS011;59316;52.964;7.102;2023-05-07T23:43:38;15.77;;;10.77;;
70757;SDS011;59316;52.964;7.102;2023-05-07T23:48:59;14.13;;;10.07;;
70757;SDS011;59316;52.964;7.102;2023-05-07T23:54:21;14.93;;;10.25;;
70757;SDS011;59316;52.964;7.102;2023-05-07T23:59:42;16.67;;;10.95;;
